Time;durP1;ratioP1;P1;durP2;ratioP2;P2;SDS_P1;SDS_P2;PMS_P1;PMS_P2;Temp;Humidity;BMP_temperature;BMP_pressure;BME280_temperature;BME280_humidity;BME280_pressure;Samples;Min_cycle;Max_cycle;Signal;HPM_P1;HPM_P2
2022/01/30 00:00:08;;;;;;;15.65;4.35;;;6.60;99.90;;;;;;5017190;28;20435;-78
2022/01/30 00:02:34;;;;;;;18.67;4.00;;;6.60;99.90;;;;;;5047060;28;20041;-79
2022/01/30 00:05:00;;;;;;;23.63;3.92;;;6.50;99.90;;;;;;4992053;28;20064;-78
2022/01/30 00:07:26;;;;;;;20.77;4.13;;;6.50;99.90;;;;;;5039392;28;20045;-79
2022/01/30 00:09:52;;;;;;;21.02;3.67;;;6.60;99.90;;;;;;5006623;28;20056;-78
2022/01/30 00:12:25;;;;;;;18.45;3.88;;;6.50;99.90;;;;;;5048206;28;20052;-78
2022/01/30 00:14:54;;;;;;;11.77;2.58;;;6.50;99.90;;;;;;5049099;28;20128;-80
2022/01/30 00:17:25;;;;;;;12.02;2.67;;;6.40;99.90;;;;;;5023742;28;20481;-79
2022/01/30 00:20:02;;;;;;;17.05;2.65;;;6.40;99.90;;;;;;5004069;28;20033;-79
2022/01/30 00:25:01;;;;;;;13.05;2.75;;;5.60;99.90;;;;;;5027839;28;20120;-79
2022/01/30 00:27:31;;;;;;;11.93;2.75;;;5.90;99.90;;;;;;5014132;28;20065;-79
2022/01/30 00:29:57;;;;;;;12.32;2.65;;;5.80;99.90;;;;;;5004129;28;20644;-79
2022/01/30 00:32:23;;;;;;;10.05;2.40;;;6.30;99.90;;;;;;5002424;28;20490;-79
2022/01/30 00:34:49;;;;;;;7.15;2.40;;;5.80;99.90;;;;;;5014178;28;20042;-79
2022/01/30 00:37:15;;;;;;;15.52;2.90;;;5.70;99.90;;;;;;4997728;28;20124;-80
2022/01/30 00:39:41;;;;;;;14.35;3.13;;;5.70;99.90;;;;;;5032815;28;20132;-79
2022/01/30 00:42:07;;;;;;;17.27;3.42;;;5.70;99.90;;;;;;5000409;28;20046;-79
2022/01/30 00:44:32;;;;;;;18.95;3.55;;;5.70;99.90;;;;;;5001526;28;20148;-81
2022/01/30 00:46:59;;;;;;;16.75;3.75;;;5.70;99.90;;;;;;5047296;28;20364;-80
2022/01/30 00:49:25;;;;;;;21.88;4.10;;;5.70;99.90;;;;;;5018021;28;20049;-80
2022/01/30 00:51:51;;;;;;;19.90;4.90;;;6.20;99.90;;;;;;5019957;28;20057;-80
2022/01/30 00:54:17;;;;;;;17.23;3.63;;;5.70;99.90;;;;;;5010108;28;20111;-80
2022/01/30 00:56:42;;;;;;;21.48;4.10;;;6.00;99.90;;;;;;5033678;28;20093;-80
2022/01/30 00:59:08;;;;;;;18.52;4.82;;;5.90;99.90;;;;;;5043381;28;20069;-80
2022/01/30 01:01:34;;;;;;;15.00;3.67;;;5.70;99.90;;;;;;5020281;28;20100;-80
2022/01/30 01:04:00;;;;;;;13.75;3.45;;;5.80;99.90;;;;;;4993880;28;20048;-80
2022/01/30 01:06:26;;;;;;;15.82;3.17;;;5.90;99.90;;;;;;5011369;28;20402;-79
2022/01/30 01:08:59;;;;;;;17.77;3.78;;;5.90;99.90;;;;;;4992829;28;20608;-80
2022/01/30 01:24:48;;;;;;;17.02;3.22;;;6.20;99.90;;;;;;5050719;28;20171;-77
2022/01/30 01:27:14;;;;;;;27.83;4.70;;;6.00;99.90;;;;;;5017345;28;20085;-81
2022/01/30 01:29:39;;;;;;;22.88;4.63;;;6.10;99.90;;;;;;5008605;28;20776;-78
2022/01/30 01:32:05;;;;;;;18.75;3.67;;;6.10;99.90;;;;;;5001743;28;20057;-77
2022/01/30 01:34:34;;;;;;;23.48;4.05;;;6.10;99.90;;;;;;5004964;28;20049;-78
2022/01/30 01:37:00;;;;;;;17.08;4.00;;;6.10;99.90;;;;;;5009638;28;20042;-78
2022/01/30 01:39:27;;;;;;;13.88;3.08;;;6.10;99.90;;;;;;5021302;28;20099;-78
2022/01/30 01:41:53;;;;;;;15.15;3.63;;;6.10;99.90;;;;;;4985484;28;20396;-77
2022/01/30 01:44:28;;;;;;;18.83;3.78;;;6.10;99.90;;;;;;4993554;28;20061;-78
2022/01/30 01:46:54;;;;;;;12.73;3.03;;;6.30;99.90;;;;;;5033533;28;20881;-78
2022/01/30 01:49:26;;;;;;;16.15;3.13;;;6.30;99.90;;;;;;5019781;28;20049;-78
2022/01/30 01:52:14;;;;;;;14.18;3.15;;;6.20;99.90;;;;;;5040609;28;20120;-79
2022/01/30 01:54:39;;;;;;;13.73;2.85;;;6.10;99.90;;;;;;5006336;28;20076;-79
2022/01/30 01:57:05;;;;;;;16.00;2.58;;;6.10;99.90;;;;;;5041952;28;20518;-78
2022/01/30 01:59:31;;;;;;;15.63;3.42;;;6.10;99.90;;;;;;5042737;28;20081;-78
2022/01/30 02:01:59;;;;;;;15.13;3.53;;;6.00;99.90;;;;;;5023223;28;20202;-79
2022/01/30 02:04:25;;;;;;;25.05;3.90;;;5.90;99.90;;;;;;5008531;28;20080;-79
2022/01/30 02:07:06;;;;;;;13.00;3.10;;;5.90;99.90;;;;;;5016534;28;20109;-79
2022/01/30 02:09:33;;;;;;;20.00;4.35;;;5.90;99.90;;;;;;5006463;28;20053;-78
2022/01/30 02:12:01;;;;;;;16.35;3.70;;;5.90;99.90;;;;;;4992693;28;20135;-79
2022/01/30 02:14:37;;;;;;;18.98;4.55;;;6.00;99.90;;;;;;5034097;28;20038;-79
2022/01/30 02:28:08;;;;;;;22.85;4.40;;;6.00;99.90;;;;;;5016759;28;20509;-78
2022/01/30 02:30:37;;;;;;;10.95;3.05;;;6.00;99.90;;;;;;5048008;28;20051;-79
2022/01/30 02:33:03;;;;;;;16.38;3.88;;;6.00;99.90;;;;;;4989983;28;20041;-79
2022/01/30 02:35:28;;;;;;;24.25;3.80;;;7.00;99.90;;;;;;5002810;28;20510;-79
2022/01/30 02:37:57;;;;;;;18.90;4.28;;;5.90;99.90;;;;;;5022550;28;20081;-80
2022/01/30 02:40:23;;;;;;;22.27;4.25;;;5.90;99.90;;;;;;5042034;28;20053;-80
2022/01/30 02:42:51;;;;;;;20.70;3.97;;;6.20;99.90;;;;;;5015903;28;20589;-79
2022/01/30 02:45:19;;;;;;;18.83;3.28;;;5.80;99.90;;;;;;5025583;28;20422;-79
2022/01/30 02:50:33;;;;;;;19.73;3.80;;;5.80;99.90;;;;;;5049798;28;20049;-79
2022/01/30 02:52:58;;;;;;;21.55;4.75;;;5.70;99.90;;;;;;4992160;28;20045;-78
2022/01/30 02:55:24;;;;;;;25.20;5.00;;;5.80;99.90;;;;;;4998943;28;20057;-78
2022/01/30 02:57:50;;;;;;;25.80;5.55;;;5.70;99.90;;;;;;4988322;28;20053;-79
2022/01/30 03:00:16;;;;;;;24.25;5.13;;;6.30;99.90;;;;;;5025108;28;20041;-79
2022/01/30 03:02:42;;;;;;;34.00;5.68;;;5.70;99.90;;;;;;5007896;28;20034;-79
2022/01/30 03:05:08;;;;;;;28.92;5.60;;;5.70;99.90;;;;;;5000300;28;20044;-80
2022/01/30 03:07:33;;;;;;;28.30;5.78;;;5.80;99.90;;;;;;5007024;28;20538;-79
2022/01/30 03:09:59;;;;;;;28.75;5.90;;;5.90;99.90;;;;;;4970015;28;20049;-79
2022/01/30 03:12:25;;;;;;;27.23;4.78;;;5.90;99.90;;;;;;4999467;28;20446;-78
2022/01/30 03:14:51;;;;;;;19.60;4.68;;;5.90;99.90;;;;;;5004559;28;20118;-79
2022/01/30 03:17:17;;;;;;;27.42;4.88;;;6.00;99.90;;;;;;5005822;28;20437;-78
2022/01/30 03:19:42;;;;;;;33.75;6.20;;;5.90;99.90;;;;;;5008051;28;21000;-80
2022/01/30 03:22:08;;;;;;;25.25;4.93;;;5.90;99.90;;;;;;5000823;28;20514;-79
2022/01/30 03:24:36;;;;;;;32.53;5.85;;;5.80;99.90;;;;;;5018769;28;20057;-77
2022/01/30 03:27:04;;;;;;;26.48;5.28;;;5.80;99.90;;;;;;5001352;28;20239;-78
2022/01/30 03:29:32;;;;;;;34.33;6.57;;;5.70;99.90;;;;;;5010877;28;20046;-78
2022/01/30 03:31:58;;;;;;;30.05;6.13;;;6.20;99.90;;;;;;5005272;28;20072;-79
2022/01/30 03:34:24;;;;;;;32.80;6.80;;;5.70;99.90;;;;;;5019731;28;20088;-79
2022/01/30 03:36:51;;;;;;;34.88;6.70;;;5.70;99.90;;;;;;4985141;28;20057;-79
2022/01/30 03:39:17;;;;;;;34.60;6.43;;;5.70;99.90;;;;;;5034127;28;20069;-79
2022/01/30 03:41:43;;;;;;;24.00;5.05;;;5.80;99.90;;;;;;5015234;28;20046;-80
2022/01/30 03:44:08;;;;;;;33.33;7.57;;;5.90;99.90;;;;;;5016600;28;20056;-79
2022/01/30 03:46:34;;;;;;;26.33;5.55;;;5.90;99.90;;;;;;5033223;28;20180;-78
2022/01/30 03:49:00;;;;;;;26.23;5.72;;;5.90;99.90;;;;;;5008544;28;20057;-79
2022/01/30 03:51:25;;;;;;;28.38;5.97;;;5.90;99.90;;;;;;5004871;28;20056;-79
2022/01/30 03:53:51;;;;;;;25.58;5.38;;;5.90;99.90;;;;;;5032304;28;20056;-79
2022/01/30 03:56:17;;;;;;;22.73;5.72;;;6.30;99.90;;;;;;5000847;28;20060;-79
2022/01/30 03:58:43;;;;;;;28.10;6.30;;;6.00;99.90;;;;;;4991476;28;20049;-81
2022/01/30 04:01:08;;;;;;;21.98;4.90;;;6.00;99.90;;;;;;4973460;28;20203;-80
2022/01/30 04:03:36;;;;;;;23.70;4.88;;;6.00;99.90;;;;;;5000552;28;20049;-79
2022/01/30 04:06:05;;;;;;;31.42;5.90;;;6.00;99.90;;;;;;5014694;28;20055;-81
2022/01/30 04:08:32;;;;;;;19.67;4.50;;;6.00;99.90;;;;;;5000025;28;20049;-81
2022/01/30 04:10:58;;;;;;;24.25;5.35;;;6.00;99.90;;;;;;4999883;28;20053;-80
2022/01/30 04:13:24;;;;;;;21.85;4.03;;;6.00;99.90;;;;;;5020904;28;20053;-80
2022/01/30 04:15:50;;;;;;;28.50;5.35;;;5.90;99.90;;;;;;4985681;28;20045;-79
2022/01/30 04:18:16;;;;;;;35.92;6.00;;;5.90;99.90;;;;;;4986011;28;20372;-80
2022/01/30 04:20:42;;;;;;;27.38;5.85;;;5.90;99.90;;;;;;5034672;28;20503;-80
2022/01/30 04:23:08;;;;;;;20.02;4.50;;;5.90;99.90;;;;;;5049831;28;20489;-80
2022/01/30 04:25:34;;;;;;;27.63;5.38;;;4.60;99.90;;;;;;4986153;28;20132;-80
2022/01/30 04:27:59;;;;;;;33.90;5.47;;;5.90;99.90;;;;;;5022717;28;20430;-80
2022/01/30 04:30:26;;;;;;;27.40;5.85;;;5.20;99.90;;;;;;5049497;28;20184;-79
2022/01/30 04:32:52;;;;;;;26.55;5.57;;;5.80;99.90;;;;;;4989544;28;20046;-80
2022/01/30 04:35:26;;;;;;;35.17;6.70;;;5.90;99.90;;;;;;5005205;28;20045;-80
2022/01/30 04:57:40;;;;;;;27.08;5.63;;;5.90;99.90;;;;;;5003847;28;20070;-80
2022/01/30 05:07:28;;;;;;;21.98;4.00;;;5.90;99.90;;;;;;5017668;28;20068;-81
2022/01/30 05:09:53;;;;;;;20.92;4.63;;;5.90;99.90;;;;;;4981085;28;20061;-81
2022/01/30 05:12:19;;;;;;;20.80;4.68;;;6.00;99.90;;;;;;5002164;28;20053;-80
2022/01/30 05:14:45;;;;;;;29.95;5.32;;;6.00;99.90;;;;;;5015011;28;20116;-80
2022/01/30 05:17:11;;;;;;;32.80;5.60;;;6.00;99.90;;;;;;5015544;28;20684;-81
2022/01/30 05:19:38;;;;;;;31.23;6.05;;;5.90;99.90;;;;;;5007706;28;20046;-80
2022/01/30 05:22:06;;;;;;;35.58;5.70;;;5.90;99.90;;;;;;4990118;28;20073;-80
2022/01/30 05:24:32;;;;;;;28.77;5.72;;;5.90;99.90;;;;;;5005251;28;20077;-80
2022/01/30 05:26:58;;;;;;;24.27;5.47;;;5.90;99.90;;;;;;4989073;28;20069;-80
2022/01/30 05:29:24;;;;;;;21.67;4.75;;;5.90;99.90;;;;;;5004668;28;20446;-80
2022/01/30 05:31:50;;;;;;;22.75;5.38;;;5.90;99.90;;;;;;5003129;28;20045;-81
2022/01/30 05:34:16;;;;;;;32.28;4.95;;;5.80;99.90;;;;;;5002205;28;20049;-80
2022/01/30 05:36:43;;;;;;;26.48;5.75;;;5.90;99.90;;;;;;5003516;28;20107;-80
2022/01/30 05:39:09;;;;;;;31.38;6.25;;;6.00;99.90;;;;;;5008109;28;20395;-81
2022/01/30 05:41:35;;;;;;;27.98;5.63;;;5.90;99.90;;;;;;4995178;28;20045;-80
2022/01/30 05:44:10;;;;;;;23.55;5.43;;;5.90;99.90;;;;;;5020461;28;20049;-79
2022/01/30 05:46:47;;;;;;;21.93;5.47;;;5.90;99.90;;;;;;5005384;28;20042;-79
2022/01/30 05:49:14;;;;;;;25.77;5.03;;;5.90;99.90;;;;;;5036298;28;20121;-80
2022/01/30 05:51:41;;;;;;;24.42;5.25;;;5.90;99.90;;;;;;5036353;28;20050;-81
2022/01/30 05:54:07;;;;;;;26.52;5.93;;;6.00;99.90;;;;;;5020155;28;20037;-80
2022/01/30 05:56:33;;;;;;;29.40;5.72;;;6.50;99.90;;;;;;5008389;28;20061;-82
2022/01/30 05:59:00;;;;;;;28.63;5.47;;;6.00;99.90;;;;;;5007058;28;20053;-81
2022/01/30 06:01:25;;;;;;;33.08;5.72;;;6.00;99.90;;;;;;5008437;28;21948;-80
2022/01/30 06:03:51;;;;;;;27.25;5.95;;;6.50;99.90;;;;;;5018996;28;20048;-81
2022/01/30 06:06:17;;;;;;;26.10;5.55;;;6.40;99.90;;;;;;5007179;28;20049;-81
2022/01/30 06:08:46;;;;;;;26.25;5.78;;;6.10;99.90;;;;;;5007000;28;20522;-79
2022/01/30 06:11:13;;;;;;;24.80;5.93;;;6.10;99.90;;;;;;5050214;28;20082;-79
2022/01/30 06:13:39;;;;;;;28.58;5.50;;;6.10;99.90;;;;;;5003575;28;20060;-79
2022/01/30 06:16:06;;;;;;;29.55;6.72;;;6.20;99.90;;;;;;5009197;28;20120;-78
2022/01/30 06:18:32;;;;;;;24.67;5.55;;;6.20;99.90;;;;;;5033237;28;20536;-79
2022/01/30 06:20:58;;;;;;;31.02;6.97;;;6.50;99.90;;;;;;5000353;28;20152;-79
2022/01/30 06:23:26;;;;;;;21.30;5.28;;;6.10;99.90;;;;;;5034058;28;20038;-78
2022/01/30 06:25:53;;;;;;;35.45;6.38;;;6.10;99.90;;;;;;5049122;28;20124;-79
2022/01/30 06:28:19;;;;;;;27.98;5.43;;;6.80;99.90;;;;;;5017916;28;20416;-79
2022/01/30 06:30:44;;;;;;;26.05;5.72;;;6.20;99.90;;;;;;5005133;28;20057;-79
2022/01/30 06:33:10;;;;;;;23.80;5.38;;;6.20;99.90;;;;;;5023833;28;20049;-79
2022/01/30 06:35:36;;;;;;;24.70;5.03;;;6.30;99.90;;;;;;5025501;28;20124;-80
2022/01/30 06:38:03;;;;;;;30.30;6.07;;;6.20;99.90;;;;;;4989619;28;20502;-80
2022/01/30 06:40:28;;;;;;;33.40;6.32;;;6.10;99.90;;;;;;5007913;28;20132;-80
2022/01/30 06:42:54;;;;;;;24.75;5.65;;;6.30;99.90;;;;;;5006782;28;20128;-80
2022/01/30 06:45:21;;;;;;;25.65;6.13;;;6.10;99.90;;;;;;4990800;28;20369;-79
2022/01/30 06:47:47;;;;;;;27.85;5.57;;;6.10;99.90;;;;;;5017409;28;20120;-79
2022/01/30 06:50:13;;;;;;;25.85;6.13;;;6.10;99.90;;;;;;5030075;28;20065;-80
2022/01/30 06:52:40;;;;;;;25.63;5.03;;;6.20;99.90;;;;;;4999954;28;20046;-79
2022/01/30 06:55:06;;;;;;;24.85;5.80;;;6.00;99.90;;;;;;5016253;28;20542;-80
2022/01/30 06:57:33;;;;;;;34.05;7.25;;;6.10;99.90;;;;;;5005382;28;20046;-80
2022/01/30 06:59:58;;;;;;;29.17;5.28;;;6.10;99.90;;;;;;5007157;28;20485;-81
2022/01/30 07:02:25;;;;;;;32.78;5.70;;;6.00;99.90;;;;;;5039020;28;20092;-80
2022/01/30 07:04:50;;;;;;;26.88;6.22;;;6.00;99.90;;;;;;5005509;28;20041;-80
2022/01/30 07:07:16;;;;;;;34.03;7.15;;;6.00;99.90;;;;;;4998893;28;20068;-80
2022/01/30 07:09:42;;;;;;;27.27;6.90;;;6.00;99.90;;;;;;5005137;28;20053;-80
2022/01/30 07:12:08;;;;;;;30.92;5.80;;;6.00;99.90;;;;;;5049761;28;20045;-80
2022/01/30 07:14:34;;;;;;;22.75;5.15;;;5.90;99.90;;;;;;5015108;28;20418;-80
2022/01/30 07:17:00;;;;;;;24.92;5.80;;;5.90;99.90;;;;;;5031341;28;20047;-81
2022/01/30 07:19:26;;;;;;;25.58;5.85;;;5.90;99.90;;;;;;4999983;28;20049;-80
2022/01/30 07:21:52;;;;;;;28.83;6.05;;;5.90;99.90;;;;;;5007140;28;20125;-80
2022/01/30 07:24:17;;;;;;;24.17;5.35;;;6.40;99.90;;;;;;5024687;28;20071;-80
2022/01/30 07:26:43;;;;;;;26.58;5.90;;;5.90;99.90;;;;;;5033912;28;20793;-79
2022/01/30 07:29:09;;;;;;;26.58;5.63;;;5.80;99.90;;;;;;5023464;28;20053;-81
2022/01/30 07:31:35;;;;;;;25.23;5.18;;;5.70;99.90;;;;;;5012721;28;20490;-80
2022/01/30 07:34:03;;;;;;;27.67;6.15;;;5.90;99.90;;;;;;4989653;28;20041;-84
2022/01/30 07:36:33;;;;;;;27.27;5.88;;;5.70;99.90;;;;;;4992177;28;20057;-84
2022/01/30 07:38:59;;;;;;;25.77;6.25;;;5.70;99.90;;;;;;5018065;28;20124;-84
2022/01/30 07:41:25;;;;;;;30.15;5.47;;;5.70;99.90;;;;;;4992110;28;20050;-82
2022/01/30 07:43:50;;;;;;;27.55;5.35;;;6.20;99.90;;;;;;5002558;28;20040;-83
2022/01/30 07:46:17;;;;;;;29.60;5.68;;;5.80;99.90;;;;;;5011480;28;20046;-84
2022/01/30 07:48:42;;;;;;;27.58;5.43;;;6.80;99.90;;;;;;4992052;28;20054;-83
2022/01/30 07:51:08;;;;;;;23.60;5.38;;;5.70;99.90;;;;;;5006286;28;20368;-83
2022/01/30 07:53:35;;;;;;;24.92;5.50;;;5.70;99.90;;;;;;5008180;28;20049;-84
2022/01/30 07:56:01;;;;;;;20.95;5.07;;;5.80;99.90;;;;;;5004504;28;20268;-83
2022/01/30 07:58:27;;;;;;;30.15;5.53;;;5.80;99.90;;;;;;5006924;28;20083;-82
2022/01/30 08:00:54;;;;;;;23.70;6.03;;;5.70;99.90;;;;;;4995847;28;20171;-83
2022/01/30 08:03:19;;;;;;;30.08;5.88;;;5.90;99.90;;;;;;5017055;28;20068;-84
2022/01/30 08:05:45;;;;;;;25.90;5.78;;;5.70;99.90;;;;;;5017239;28;20498;-83
2022/01/30 08:08:11;;;;;;;26.88;5.63;;;6.50;99.90;;;;;;5033369;28;20056;-83
2022/01/30 08:10:37;;;;;;;31.45;6.45;;;5.80;99.90;;;;;;5001485;28;20064;-83
2022/01/30 08:13:03;;;;;;;26.88;6.10;;;5.80;99.90;;;;;;5006191;28;20057;-84
2022/01/30 08:15:29;;;;;;;24.65;5.80;;;5.80;99.90;;;;;;5007364;28;20100;-84
2022/01/30 08:17:55;;;;;;;27.23;5.70;;;5.90;99.90;;;;;;5047159;28;20133;-85
2022/01/30 08:20:25;;;;;;;23.95;5.70;;;5.90;99.90;;;;;;5039756;28;20049;-83
2022/01/30 08:22:53;;;;;;;31.08;6.70;;;5.90;99.90;;;;;;5000867;28;20111;-83
2022/01/30 08:25:21;;;;;;;32.05;6.47;;;6.00;99.90;;;;;;5032645;28;20041;-84
2022/01/30 08:27:49;;;;;;;25.15;6.55;;;6.00;99.90;;;;;;5034728;28;20046;-83
2022/01/30 08:30:15;;;;;;;26.23;5.95;;;6.20;99.90;;;;;;4998231;28;20050;-83
2022/01/30 08:32:44;;;;;;;31.50;6.10;;;6.20;99.90;;;;;;5017840;28;20042;-83
2022/01/30 08:35:15;;;;;;;27.00;6.28;;;6.10;99.90;;;;;;4989560;28;20499;-85
2022/01/30 08:37:41;;;;;;;23.48;5.90;;;6.20;99.90;;;;;;5014206;28;20081;-81
2022/01/30 08:40:14;;;;;;;27.90;5.68;;;6.20;99.90;;;;;;5033512;28;20046;-83
2022/01/30 08:42:40;;;;;;;22.48;6.07;;;6.40;99.90;;;;;;5017072;28;20045;-81
2022/01/30 08:45:10;;;;;;;27.33;6.20;;;6.10;99.90;;;;;;5029199;28;20080;-81
2022/01/30 08:47:37;;;;;;;25.75;5.55;;;6.10;99.90;;;;;;5016067;28;20050;-80
2022/01/30 08:50:04;;;;;;;28.45;5.32;;;6.00;99.90;;;;;;5034528;28;20057;-80
2022/01/30 08:52:30;;;;;;;26.10;6.07;;;6.00;99.90;;;;;;4983866;28;20042;-80
2022/01/30 08:54:56;;;;;;;25.73;5.30;;;6.10;99.90;;;;;;4988931;28;20414;-80
2022/01/30 08:57:22;;;;;;;30.35;5.97;;;6.40;99.90;;;;;;5015318;28;20048;-79
2022/01/30 08:59:48;;;;;;;25.83;5.60;;;6.60;99.90;;;;;;4985903;28;20539;-81
2022/01/30 09:02:14;;;;;;;33.25;6.60;;;6.70;99.90;;;;;;5031662;28;20369;-80
2022/01/30 09:04:39;;;;;;;29.20;6.50;;;6.90;99.90;;;;;;4989497;28;20042;-80
2022/01/30 09:07:05;;;;;;;25.23;6.15;;;7.20;99.90;;;;;;5032704;28;20037;-80
2022/01/30 09:09:31;;;;;;;28.42;5.57;;;7.50;99.90;;;;;;5002647;28;20115;-78
2022/01/30 09:11:58;;;;;;;22.17;5.13;;;7.80;99.90;;;;;;5017445;28;20046;-78
2022/01/30 09:14:25;;;;;;;25.38;6.07;;;7.90;99.90;;;;;;5020837;28;20045;-80
2022/01/30 09:16:50;;;;;;;27.60;5.22;;;8.30;99.90;;;;;;5010032;28;20045;-79
2022/01/30 09:19:16;;;;;;;25.05;5.30;;;7.50;99.90;;;;;;5002598;28;20506;-79
2022/01/30 09:21:42;;;;;;;20.25;4.75;;;8.30;99.90;;;;;;5019049;28;20042;-79
2022/01/30 09:24:08;;;;;;;26.15;5.13;;;7.60;99.90;;;;;;4976934;28;20041;-80
2022/01/30 09:26:34;;;;;;;26.33;5.53;;;7.60;99.90;;;;;;5004108;28;20041;-80
2022/01/30 09:28:59;;;;;;;22.60;4.88;;;7.60;99.90;;;;;;5022831;28;20056;-80
2022/01/30 09:31:25;;;;;;;28.33;6.13;;;7.50;99.90;;;;;;5019411;28;20064;-80
2022/01/30 09:33:52;;;;;;;26.33;5.43;;;7.40;99.90;;;;;;5004643;28;20048;-79
2022/01/30 09:36:18;;;;;;;21.48;5.20;;;7.70;99.90;;;;;;5027969;28;20053;-79
2022/01/30 09:38:44;;;;;;;28.88;5.03;;;7.80;99.90;;;;;;5006328;28;20104;-79
2022/01/30 09:41:11;;;;;;;26.20;5.07;;;7.90;99.90;;;;;;5012250;28;20064;-81
2022/01/30 09:43:37;;;;;;;25.02;5.90;;;7.90;99.90;;;;;;4992472;28;20046;-79
2022/01/30 09:46:04;;;;;;;25.05;5.97;;;7.90;99.90;;;;;;5010316;28;20056;-79
2022/01/30 09:48:35;;;;;;;26.58;5.97;;;8.10;99.90;;;;;;5035931;28;20132;-79
2022/01/30 09:51:03;;;;;;;26.80;5.50;;;8.20;99.90;;;;;;5002969;28;20038;-80
2022/01/30 09:53:29;;;;;;;25.10;5.80;;;8.30;99.90;;;;;;5052704;28;20053;-79
2022/01/30 09:55:55;;;;;;;27.73;5.90;;;8.50;99.90;;;;;;5036462;28;20079;-79
2022/01/30 09:58:20;;;;;;;23.30;7.03;;;8.70;99.90;;;;;;5009698;28;20049;-81
2022/01/30 10:00:46;;;;;;;24.48;5.90;;;8.90;99.90;;;;;;5002715;28;20045;-78
2022/01/30 10:03:12;;;;;;;33.38;6.45;;;9.00;99.90;;;;;;5002939;28;20042;-79
2022/01/30 10:05:58;;;;;;;27.65;6.70;;;8.70;99.90;;;;;;5005111;28;20077;-81
2022/01/30 10:08:28;;;;;;;27.80;5.80;;;8.40;99.90;;;;;;5036497;28;20061;-79
2022/01/30 10:11:01;;;;;;;32.50;6.60;;;8.10;99.90;;;;;;5035421;28;20133;-79
2022/01/30 10:13:31;;;;;;;32.42;6.60;;;8.00;99.90;;;;;;5002846;28;20053;-81
2022/01/30 10:16:04;;;;;;;33.85;6.63;;;7.80;99.90;;;;;;5020791;28;20434;-80
2022/01/30 10:18:33;;;;;;;39.30;6.78;;;7.70;99.90;;;;;;5017478;28;20475;-81
2022/01/30 10:21:00;;;;;;;26.75;6.60;;;7.50;99.90;;;;;;5008623;28;20046;-81
2022/01/30 10:23:36;;;;;;;33.28;6.32;;;7.50;99.90;;;;;;5018461;28;20107;-80
2022/01/30 10:26:12;;;;;;;36.70;7.50;;;7.30;99.90;;;;;;5034208;28;20045;-81
2022/01/30 10:28:40;;;;;;;28.67;6.70;;;7.20;99.90;;;;;;5003405;28;20046;-82
2022/01/30 10:31:08;;;;;;;37.00;7.18;;;7.10;99.90;;;;;;5042288;28;20049;-80
2022/01/30 10:33:52;;;;;;;29.83;5.93;;;7.20;99.90;;;;;;5017669;28;20045;-81
2022/01/30 10:36:23;;;;;;;24.63;5.82;;;7.50;99.90;;;;;;5015991;28;20046;-80
2022/01/30 10:39:12;;;;;;;34.03;5.93;;;7.70;99.90;;;;;;5019334;28;20798;-83
2022/01/30 10:41:45;;;;;;;21.33;5.03;;;7.90;99.90;;;;;;5035533;28;20518;-80
2022/01/30 10:44:12;;;;;;;26.15;5.45;;;7.80;99.90;;;;;;5004337;28;20410;-80
2022/01/30 10:46:49;;;;;;;28.17;5.88;;;7.80;99.90;;;;;;5024421;28;20049;-76
2022/01/30 10:49:17;;;;;;;22.90;5.45;;;8.10;99.90;;;;;;5007630;28;20054;-80
2022/01/30 10:51:57;;;;;;;21.40;5.18;;;8.40;99.90;;;;;;5034206;28;20049;-78
2022/01/30 10:54:26;;;;;;;29.75;6.00;;;8.60;99.90;;;;;;5007072;28;20041;-79
2022/01/30 10:57:02;;;;;;;35.38;6.15;;;8.60;99.90;;;;;;5033260;28;20449;-79
2022/01/30 10:59:28;;;;;;;21.83;5.10;;;8.80;99.90;;;;;;5033914;28;20041;-78
2022/01/30 11:01:54;;;;;;;27.48;6.18;;;9.00;99.90;;;;;;5016303;28;20095;-78
2022/01/30 11:04:24;;;;;;;30.45;6.63;;;8.90;99.90;;;;;;4999735;28;20045;-79
2022/01/30 11:06:51;;;;;;;30.45;6.57;;;8.80;99.90;;;;;;5008573;28;20056;-80
2022/01/30 11:09:24;;;;;;;29.10;6.10;;;8.60;99.90;;;;;;5015500;28;20058;-82
2022/01/30 11:11:55;;;;;;;35.58;6.22;;;8.40;99.90;;;;;;5033130;28;20141;-79
2022/01/30 11:14:24;;;;;;;22.90;5.80;;;8.30;99.90;;;;;;5016583;28;20053;-80
2022/01/30 11:17:03;;;;;;;27.42;6.03;;;8.00;99.90;;;;;;5026287;28;20466;-79
2022/01/30 11:19:30;;;;;;;31.60;6.30;;;7.90;99.90;;;;;;5010033;28;20049;-79
2022/01/30 11:22:05;;;;;;;27.40;6.45;;;7.90;99.90;;;;;;5033936;28;20103;-80
2022/01/30 11:24:34;;;;;;;33.35;5.97;;;7.90;99.90;;;;;;5000886;28;20565;-79
2022/01/30 11:27:00;;;;;;;25.92;5.75;;;8.00;99.90;;;;;;5034316;28;20057;-80
2022/01/30 11:29:28;;;;;;;20.40;5.18;;;8.00;99.90;;;;;;4992484;28;20499;-79
2022/01/30 11:31:54;;;;;;;27.02;5.35;;;8.30;99.90;;;;;;5033862;28;20451;-79
2022/01/30 11:34:23;;;;;;;25.75;5.30;;;8.60;99.90;;;;;;5001574;28;20093;-80
2022/01/30 11:36:49;;;;;;;28.45;6.55;;;8.90;99.90;;;;;;5009580;28;20061;-80
2022/01/30 11:39:19;;;;;;;28.85;5.38;;;8.90;99.90;;;;;;5002306;28;20056;-80
2022/01/30 11:42:08;;;;;;;23.67;5.10;;;9.00;99.90;;;;;;5001532;28;20569;-80
2022/01/30 11:44:34;;;;;;;25.48;5.35;;;8.90;99.90;;;;;;5011073;28;20377;-79
2022/01/30 11:47:03;;;;;;;22.63;5.30;;;8.70;99.90;;;;;;5034090;28;20048;-79
2022/01/30 11:49:42;;;;;;;21.92;5.20;;;8.60;99.90;;;;;;5010140;28;20093;-80
2022/01/30 11:52:13;;;;;;;26.67;5.47;;;8.40;99.90;;;;;;5010460;28;20045;-80
2022/01/30 11:54:51;;;;;;;27.83;5.95;;;8.40;99.90;;;;;;5018457;28;20351;-80
2022/01/30 11:57:23;;;;;;;22.48;5.65;;;8.30;99.90;;;;;;5019170;28;20052;-80
2022/01/30 11:59:57;;;;;;;25.10;5.32;;;8.20;99.90;;;;;;5026405;28;20168;-80
2022/01/30 12:02:24;;;;;;;26.95;5.70;;;8.10;99.90;;;;;;5001242;28;20069;-81
2022/01/30 12:04:56;;;;;;;24.35;4.68;;;8.60;99.90;;;;;;5017909;28;20496;-80
2022/01/30 12:07:47;;;;;;;22.48;5.10;;;7.90;99.90;;;;;;5033568;28;20053;-82
2022/01/30 12:10:16;;;;;;;17.23;5.22;;;7.80;99.90;;;;;;5017927;28;20057;-80
2022/01/30 12:12:55;;;;;;;24.55;4.63;;;7.80;99.90;;;;;;5034373;28;20642;-79
2022/01/30 12:15:44;;;;;;;20.80;5.65;;;7.70;99.90;;;;;;5003161;28;20103;-82
2022/01/30 12:18:11;;;;;;;23.67;5.93;;;7.80;99.90;;;;;;5043233;28;20050;-81
2022/01/30 12:20:59;;;;;;;27.42;5.50;;;7.80;99.90;;;;;;5035184;28;20050;-81
2022/01/30 12:23:36;;;;;;;21.65;4.45;;;7.80;99.90;;;;;;5008566;28;20509;-81
2022/01/30 12:26:08;;;;;;;18.92;4.88;;;7.80;99.90;;;;;;5026413;28;20139;-80
2022/01/30 12:28:54;;;;;;;20.45;4.78;;;7.80;99.90;;;;;;5033093;28;20050;-80
2022/01/30 12:31:32;;;;;;;;;;;7.90;99.90;;;;;;5038466;28;20061;-80
2022/01/30 12:34:01;;;;;;;22.30;5.57;;;8.00;99.90;;;;;;5005701;28;19930;-80
2022/01/30 12:36:28;;;;;;;23.33;4.93;;;8.00;99.90;;;;;;5018320;28;20068;-80
2022/01/30 12:38:57;;;;;;;21.38;5.10;;;8.00;99.90;;;;;;5019392;28;20088;-81
2022/01/30 12:41:25;;;;;;;28.83;5.63;;;8.00;99.90;;;;;;4999088;28;20524;-81
2022/01/30 12:43:57;;;;;;;23.08;4.90;;;8.00;99.90;;;;;;5019893;28;20042;-80
2022/01/30 12:46:26;;;;;;;27.77;5.40;;;8.00;99.90;;;;;;5013153;28;20758;-81
2022/01/30 12:49:08;;;;;;;19.42;4.95;;;8.00;99.90;;;;;;5021518;28;20415;-80
2022/01/30 12:51:40;;;;;;;19.20;4.53;;;7.90;99.90;;;;;;5037765;28;20122;-80
2022/01/30 12:54:07;;;;;;;22.38;4.60;;;7.90;99.90;;;;;;5022381;28;20053;-79
2022/01/30 12:56:35;;;;;;;19.80;5.13;;;7.80;99.90;;;;;;5053558;28;20049;-79
2022/01/30 12:59:07;;;;;;;25.98;4.40;;;7.80;99.90;;;;;;4997194;28;20053;-79
2022/01/30 13:01:35;;;;;;;19.85;4.20;;;7.80;99.90;;;;;;5022126;28;20046;-79
2022/01/30 13:04:17;;;;;;;21.80;4.45;;;7.80;99.90;;;;;;5021430;28;20077;-79
2022/01/30 13:06:45;;;;;;;20.80;5.13;;;7.80;99.90;;;;;;5019961;28;20609;-79
2022/01/30 13:09:17;;;;;;;19.83;4.70;;;7.80;99.90;;;;;;5004230;28;20049;-78
2022/01/30 13:11:43;;;;;;;21.73;4.85;;;8.20;99.90;;;;;;5035407;28;20057;-80
2022/01/30 13:14:09;;;;;;;20.55;5.35;;;7.70;99.90;;;;;;5010744;28;20053;-80
2022/01/30 13:16:42;;;;;;;28.00;4.80;;;7.90;99.90;;;;;;4995140;28;20061;-83
2022/01/30 13:19:13;;;;;;;20.75;4.70;;;7.90;99.90;;;;;;5020796;28;20057;-81
2022/01/30 13:21:45;;;;;;;19.50;4.60;;;7.90;99.90;;;;;;5035879;28;20462;-79
2022/01/30 13:24:17;;;;;;;22.17;4.65;;;7.90;99.90;;;;;;5003992;28;20507;-81
2022/01/30 13:26:44;;;;;;;23.25;4.85;;;7.90;99.90;;;;;;5034961;28;20064;-81
2022/01/30 13:29:19;;;;;;;23.02;4.90;;;8.00;99.90;;;;;;5011979;28;20411;-81
2022/01/30 13:31:50;;;;;;;20.02;4.45;;;7.90;99.90;;;;;;5020936;28;20046;-80
2022/01/30 13:34:19;;;;;;;20.40;4.78;;;7.90;99.90;;;;;;5010957;28;20038;-80
2022/01/30 13:36:53;;;;;;;21.13;4.70;;;8.00;99.90;;;;;;5018544;28;20054;-77
2022/01/30 13:39:28;;;;;;;25.80;5.18;;;7.90;99.90;;;;;;5005378;28;20131;-79
2022/01/30 13:42:14;;;;;;;23.50;4.43;;;7.90;99.90;;;;;;5003300;28;20073;-79
2022/01/30 13:44:51;;;;;;;31.38;5.40;;;7.90;99.90;;;;;;5004986;28;20121;-80
2022/01/30 13:47:22;;;;;;;21.27;4.03;;;7.90;99.90;;;;;;5010121;28;20042;-80
2022/01/30 13:49:50;;;;;;;22.50;4.75;;;7.90;99.90;;;;;;5004498;28;20061;-80